createdAt,value
2019-04-07T00:00:18.241Z,19.93
2019-04-07T00:04:23.730Z,20.17
2019-04-07T00:08:28.832Z,20.10
2019-04-07T00:12:34.532Z,21.47
2019-04-07T00:16:40.006Z,21.00
2019-04-07T00:20:45.311Z,20.63
2019-04-07T00:24:50.597Z,21.93
2019-04-07T00:28:55.641Z,20.70
2019-04-07T00:33:00.832Z,21.33
2019-04-07T00:37:05.977Z,22.43
2019-04-07T00:41:11.016Z,22.60
2019-04-07T00:45:16.394Z,22.07
2019-04-07T00:49:21.521Z,21.93
2019-04-07T00:53:26.812Z,23.03
2019-04-07T00:57:31.813Z,25.37
2019-04-07T01:01:37.218Z,26.77
2019-04-07T01:05:43.435Z,28.13
2019-04-07T01:09:48.618Z,25.73
2019-04-07T01:13:53.949Z,28.07
2019-04-07T01:17:59.058Z,25.47
2019-04-07T01:22:04.131Z,25.97
2019-04-07T01:26:09.708Z,27.80
2019-04-07T01:30:15.146Z,28.07
2019-04-07T01:34:20.636Z,24.50
2019-04-07T01:38:25.832Z,24.73
2019-04-07T01:42:32.496Z,27.00
2019-04-07T01:46:51.537Z,26.97
2019-04-07T01:50:58.206Z,26.63
2019-04-07T01:55:11.339Z,25.73
2019-04-07T01:59:30.294Z,26.23
2019-04-07T02:03:37.378Z,31.00
2019-04-07T02:07:47.099Z,29.60
2019-04-07T02:12:02.691Z,31.17
2019-04-07T02:16:15.930Z,32.67
2019-04-07T02:21:05.420Z,31.60
2019-04-07T02:25:20.970Z,32.13
2019-04-07T02:29:42.686Z,31.73
2019-04-07T02:33:49.948Z,32.57
2019-04-07T02:37:56.910Z,32.67
2019-04-07T02:42:20.279Z,31.00
2019-04-07T02:46:46.288Z,32.17
2019-04-07T02:51:05.764Z,31.80
2019-04-07T02:55:18.520Z,32.43
2019-04-07T02:59:42.902Z,33.60
2019-04-07T03:03:52.651Z,34.83
2019-04-07T03:08:05.864Z,32.53
2019-04-07T03:12:15.494Z,31.63
2019-04-07T03:16:34.167Z,34.03
2019-04-07T03:20:53.833Z,33.83
2019-04-07T03:25:03.778Z,33.30
2019-04-07T03:29:23.558Z,33.87
2019-04-07T03:33:32.816Z,33.20
2019-04-07T03:37:57.265Z,32.47
2019-04-07T03:42:13.054Z,30.97
2019-04-07T03:46:28.759Z,30.20
2019-04-07T03:50:38.717Z,29.37
2019-04-07T03:54:46.502Z,29.03
2019-04-07T03:59:02.038Z,29.27
2019-04-07T04:03:08.827Z,30.40
2019-04-07T04:07:26.614Z,30.30
2019-04-07T04:11:23.697Z,30.13
2019-04-07T04:15:31.277Z,32.07
2019-04-07T04:19:36.336Z,30.53
2019-04-07T04:23:43.027Z,32.83
2019-04-07T04:27:48.899Z,34.50
2019-04-07T04:31:54.613Z,32.70
2019-04-07T04:36:00.550Z,33.17
2019-04-07T04:40:07.634Z,34.97
2019-04-07T04:44:12.593Z,33.63
2019-04-07T04:48:17.639Z,33.20
2019-04-07T04:52:22.642Z,35.13
2019-04-07T04:56:28.599Z,36.83
2019-04-07T05:00:34.076Z,36.00
2019-04-07T05:04:39.869Z,31.87
2019-04-07T05:08:45.612Z,24.90
2019-04-07T05:12:50.801Z,19.33
2019-04-07T05:16:56.086Z,17.47
2019-04-07T05:21:01.331Z,15.90
2019-04-07T05:25:07.467Z,15.57
2019-04-07T05:29:12.745Z,14.13
2019-04-07T05:33:18.018Z,14.00
2019-04-07T05:37:24.137Z,12.80
2019-04-07T05:41:29.647Z,12.60
2019-04-07T05:45:36.661Z,13.13
2019-04-07T05:49:41.983Z,13.23
2019-04-07T05:53:48.387Z,12.47
2019-04-07T05:57:54.225Z,13.57
2019-04-07T06:02:02.528Z,15.20
2019-04-07T06:06:08.165Z,13.13
2019-04-07T06:10:14.504Z,11.70
2019-04-07T06:14:20.503Z,12.40
2019-04-07T06:18:26.040Z,11.10
2019-04-07T06:22:31.512Z,10.90
2019-04-07T06:26:37.116Z,11.30
2019-04-07T06:30:42.881Z,9.77
2019-04-07T06:34:49.902Z,11.03
2019-04-07T06:38:56.854Z,9.73
2019-04-07T06:43:05.247Z,10.07
2019-04-07T06:47:15.885Z,10.00
2019-04-07T06:51:24.046Z,9.57
2019-04-07T06:55:46.108Z,9.53
2019-04-07T07:00:09.465Z,11.67
2019-04-07T07:04:35.572Z,9.33
2019-04-07T07:08:57.090Z,10.47
2019-04-07T07:13:11.648Z,9.60
2019-04-07T07:17:36.530Z,10.60
2019-04-07T07:21:44.418Z,9.63
2019-04-07T07:25:50.500Z,9.63
2019-04-07T07:29:56.545Z,8.70
2019-04-07T07:34:01.837Z,7.13
2019-04-07T07:38:07.618Z,6.30
2019-04-07T07:42:13.783Z,6.67
2019-04-07T07:46:21.859Z,6.07
2019-04-07T07:50:26.682Z,5.90
2019-04-07T07:54:32.170Z,11.13
2019-04-07T07:58:37.558Z,7.20
2019-04-07T08:02:42.844Z,6.33
2019-04-07T08:06:48.130Z,6.83
2019-04-07T08:10:56.175Z,6.57
2019-04-07T08:15:00.345Z,6.43
2019-04-07T08:19:08.473Z,6.27
2019-04-07T08:23:13.597Z,6.03
2019-04-07T08:27:19.599Z,6.10
2019-04-07T08:31:25.052Z,6.37
2019-04-07T08:35:30.875Z,5.67
2019-04-07T08:39:37.429Z,6.43
2019-04-07T08:43:43.043Z,5.67
2019-04-07T08:47:50.012Z,5.60
2019-04-07T08:51:56.055Z,6.57
2019-04-07T08:56:01.461Z,6.10
2019-04-07T09:00:14.923Z,6.40
2019-04-07T09:04:17.849Z,6.30
2019-04-07T09:08:24.137Z,6.77
2019-04-07T09:12:31.995Z,6.47
2019-04-07T09:16:56.201Z,6.73
2019-04-07T09:21:20.325Z,6.83
2019-04-07T09:25:27.299Z,6.43
2019-04-07T09:29:51.100Z,6.27
2019-04-07T09:34:03.872Z,6.70
2019-04-07T09:38:14.425Z,6.90
2019-04-07T09:42:40.156Z,6.43
2019-04-07T09:46:56.312Z,6.30
2019-04-07T09:51:06.949Z,7.37
2019-04-07T09:55:17.856Z,7.33
2019-04-07T09:59:30.716Z,8.07
2019-04-07T10:03:52.690Z,7.37
2019-04-07T10:08:13.776Z,7.03
2019-04-07T10:12:23.226Z,6.47
2019-04-07T10:16:33.101Z,7.40
2019-04-07T10:20:55.874Z,7.10
2019-04-07T10:25:04.369Z,7.33
2019-04-07T10:29:18.644Z,6.63
2019-04-07T10:33:41.665Z,7.30
2019-04-07T10:38:04.012Z,7.13
2019-04-07T10:42:11.371Z,7.47
2019-04-07T10:46:34.574Z,7.60
2019-04-07T10:50:41.517Z,7.17
2019-04-07T10:54:49.304Z,7.20
2019-04-07T10:59:00.425Z,7.13
2019-04-07T11:03:07.445Z,6.63
2019-04-07T11:07:17.431Z,7.40
2019-04-07T11:11:26.617Z,6.83
2019-04-07T11:15:34.076Z,7.77
2019-04-07T11:19:57.275Z,7.33
2019-04-07T11:24:22.618Z,7.13
2019-04-07T11:28:29.536Z,7.10
2019-04-07T11:32:53.315Z,7.77
2019-04-07T11:37:00.593Z,6.97
2019-04-07T11:41:07.761Z,7.30
2019-04-07T11:45:22.539Z,6.53
2019-04-07T11:49:32.679Z,6.67
2019-04-07T11:53:40.103Z,7.33
2019-04-07T11:58:14.394Z,7.17
2019-04-07T12:02:22.126Z,7.03
2019-04-07T12:06:33.198Z,7.43
2019-04-07T12:11:02.262Z,7.70
2019-04-07T12:15:12.030Z,8.93
2019-04-07T12:19:28.907Z,8.10
2019-04-07T12:23:46.474Z,7.53
2019-04-07T12:28:03.436Z,8.27
2019-04-07T12:32:20.263Z,8.97
2019-04-07T12:36:31.060Z,7.67
2019-04-07T12:41:11.016Z,7.57
2019-04-07T12:45:03.738Z,7.87
2019-04-07T12:49:10.726Z,9.00
2019-04-07T12:53:23.842Z,7.63
2019-04-07T12:57:39.439Z,8.07
2019-04-07T13:01:57.917Z,8.37
2019-04-07T13:06:07.589Z,8.07
2019-04-07T13:10:32.498Z,8.07
2019-04-07T13:14:42.816Z,7.50
2019-04-07T13:19:11.756Z,7.13
2019-04-07T13:23:36.986Z,7.10
2019-04-07T13:27:46.862Z,7.77
2019-04-07T13:32:10.324Z,7.57
2019-04-07T13:36:17.401Z,6.80
2019-04-07T13:40:36.634Z,6.97
2019-04-07T13:44:49.651Z,6.93
2019-04-07T13:49:09.664Z,7.43
2019-04-07T13:53:32.875Z,8.10
2019-04-07T13:57:58.113Z,7.77
2019-04-07T14:02:13.223Z,6.97
2019-04-07T14:06:20.531Z,7.57
2019-04-07T14:10:27.512Z,7.00
2019-04-07T14:14:45.893Z,7.30
2019-04-07T14:19:08.896Z,7.40
2019-04-07T14:23:31.770Z,7.37
2019-04-07T14:27:47.673Z,7.10
2019-04-07T14:31:55.516Z,7.17
2019-04-07T14:36:08.273Z,6.87
2019-04-07T14:40:21.334Z,7.27
2019-04-07T14:44:29.270Z,6.97
2019-04-07T14:48:53.297Z,7.50
2019-04-07T14:53:09.310Z,6.80
2019-04-07T14:57:22.500Z,6.67
2019-04-07T15:01:46.848Z,7.20
2019-04-07T15:05:56.360Z,8.60
2019-04-07T15:10:20.243Z,7.77
2019-04-07T15:14:26.286Z,6.90
2019-04-07T15:18:31.565Z,6.50
2019-04-07T15:22:36.843Z,6.93
2019-04-07T15:26:42.492Z,6.93
2019-04-07T15:30:49.567Z,6.57
2019-04-07T15:34:55.734Z,6.93
2019-04-07T15:39:01.228Z,6.97
2019-04-07T15:43:10.917Z,6.33
2019-04-07T15:47:15.096Z,7.20
2019-04-07T15:51:20.365Z,7.13
2019-04-07T15:55:42.199Z,6.93
2019-04-07T15:59:33.065Z,7.63
2019-04-07T16:03:38.857Z,8.67
2019-04-07T16:07:44.903Z,8.40
2019-04-07T16:11:50.869Z,8.40
2019-04-07T16:15:57.536Z,8.40
2019-04-07T16:20:03.720Z,8.77
2019-04-07T16:24:09.510Z,8.50
2019-04-07T16:28:16.280Z,8.60
2019-04-07T16:32:22.107Z,8.67
2019-04-07T16:36:28.138Z,8.63
2019-04-07T16:40:33.914Z,8.73
2019-04-07T16:44:43.261Z,8.17
2019-04-07T16:48:46.223Z,8.20
2019-04-07T16:52:51.501Z,8.53
2019-04-07T16:56:58.132Z,8.43
2019-04-07T17:01:04.632Z,8.93
2019-04-07T17:05:11.981Z,8.43
2019-04-07T17:09:24.704Z,9.10
2019-04-07T17:13:38.794Z,8.53
2019-04-07T17:17:38.885Z,10.60
2019-04-07T17:21:45.319Z,10.50
2019-04-07T17:25:52.922Z,11.13
2019-04-07T17:29:58.813Z,11.13
2019-04-07T17:34:07.383Z,12.00
2019-04-07T17:38:13.785Z,11.77
2019-04-07T17:42:22.577Z,10.90
2019-04-07T17:46:29.662Z,12.53
2019-04-07T17:50:53.100Z,12.87
2019-04-07T17:55:15.144Z,13.23
2019-04-07T17:59:22.123Z,12.97
2019-04-07T18:03:39.099Z,13.83
2019-04-07T18:07:53.258Z,14.10
2019-04-07T18:12:15.699Z,13.27
2019-04-07T18:16:37.764Z,14.77
2019-04-07T18:20:50.482Z,14.60
2019-04-07T18:24:59.631Z,15.07
2019-04-07T18:29:11.733Z,15.30
2019-04-07T18:33:20.661Z,16.20
2019-04-07T18:37:44.267Z,17.60
2019-04-07T18:41:51.638Z,17.20
2019-04-07T18:46:01.951Z,17.70
2019-04-07T18:50:22.123Z,17.90
2019-04-07T18:54:32.478Z,17.50
2019-04-07T18:58:54.646Z,16.23
2019-04-07T19:03:09.257Z,17.40
2019-04-07T19:07:34.617Z,17.30
2019-04-07T19:11:47.051Z,16.90
2019-04-07T19:16:15.493Z,16.70
2019-04-07T19:20:19.415Z,16.43
2019-04-07T19:24:30.050Z,16.83
2019-04-07T19:28:47.769Z,16.53
2019-04-07T19:33:00.499Z,16.37
2019-04-07T19:37:15.323Z,17.27
2019-04-07T19:41:26.405Z,30.87
2019-04-07T19:45:39.291Z,18.83
2019-04-07T19:49:55.008Z,16.57
2019-04-07T19:54:02.494Z,17.20
2019-04-07T19:58:21.820Z,17.97
2019-04-07T20:02:38.018Z,17.27
2019-04-07T20:06:49.008Z,17.80
2019-04-07T20:11:12.276Z,18.23
2019-04-07T20:15:30.457Z,20.83
2019-04-07T20:19:53.713Z,20.10
2019-04-07T20:24:05.682Z,18.93
2019-04-07T20:28:18.147Z,18.90
2019-04-07T20:32:26.191Z,16.57
2019-04-07T20:36:36.022Z,18.00
2019-04-07T20:40:49.802Z,18.60
2019-04-07T20:45:16.287Z,17.43
2019-04-07T20:49:38.055Z,17.87
2019-04-07T20:53:47.332Z,18.00
2019-04-07T20:58:18.717Z,17.67
2019-04-07T21:02:37.772Z,20.57
2019-04-07T21:06:44.730Z,20.27
2019-04-07T21:11:07.769Z,18.67
2019-04-07T21:15:20.816Z,18.90
2019-04-07T21:19:38.285Z,20.70
2019-04-07T21:24:01.529Z,23.73
2019-04-07T21:28:08.963Z,21.07
2019-04-07T21:32:25.257Z,23.60
2019-04-07T21:36:32.281Z,20.70
2019-04-07T21:40:48.348Z,22.97
2019-04-07T21:45:00.009Z,23.27
2019-04-07T21:49:21.308Z,22.63
2019-04-07T21:53:30.377Z,22.50
2019-04-07T21:57:53.621Z,22.03
2019-04-07T22:02:00.682Z,21.53
2019-04-07T22:06:14.471Z,21.73
2019-04-07T22:10:21.732Z,23.53
2019-04-07T22:14:28.322Z,20.37
2019-04-07T22:18:34.446Z,21.57
2019-04-07T22:22:40.842Z,24.57
2019-04-07T22:26:49.127Z,22.03
2019-04-07T22:30:55.233Z,22.10
2019-04-07T22:35:04.456Z,22.20
2019-04-07T22:39:07.851Z,22.70
2019-04-07T22:43:16.683Z,23.47
2019-04-07T22:47:22.285Z,25.50
2019-04-07T22:51:28.300Z,24.40
2019-04-07T22:55:35.931Z,25.53
2019-04-07T22:59:40.705Z,24.77
2019-04-07T23:03:45.985Z,25.73
2019-04-07T23:07:52.161Z,24.13
2019-04-07T23:12:00.520Z,23.20
2019-04-07T23:16:10.724Z,20.40
2019-04-07T23:20:13.074Z,22.30
2019-04-07T23:24:19.430Z,17.67
2019-04-07T23:28:25.010Z,18.30
2019-04-07T23:32:31.257Z,18.57
2019-04-07T23:36:36.484Z,17.70
2019-04-07T23:40:41.942Z,18.20
2019-04-07T23:44:47.833Z,17.70
2019-04-07T23:48:53.949Z,17.50
2019-04-07T23:53:02.421Z,17.60
2019-04-07T23:57:07.752Z,16.33
